Alida, Canada
Current Conditions -  °F | °C
As of 3:00 AM on Wednesday 26 Nov 2014 (Local Time) from CYEN Reporting Station
Light Snow Light Snow  
Wind Chill: -19°   Ceiling: 4000
Heat Index: -13°   Visibility: 3mi
Dew Point: -15°   Wind: 6mph
Humidity: 85%   Direction: 360°N
Pressure: 30.25"   Gusts: NA
Location:  49.38°N, 101.87°W
Report Text: CYEN 260900Z 36005KT 3SM -SN OVC040 M13/M15 A3025 RMK SC8 SLP288
Loading
Personal Weather Stations






























Interactive Weather Map New forecast layout! Learn more

10-Day Weather Forecast

Advertisements
Track Severe Weather on mobile